sensor_id;sensor_type;location;lat;lon;timestamp;pressure;altitude;pressure_sealevel;temperature;humidity
50394;BME280;36308;46.312;25.288;2023-04-20T00:00:02;95667.19;;;7.00;59.81
50394;BME280;36308;46.312;25.288;2023-04-20T00:02:38;95668.50;;;6.97;60.36
50394;BME280;36308;46.312;25.288;2023-04-20T00:05:05;95666.06;;;6.96;60.25
50394;BME280;36308;46.312;25.288;2023-04-20T00:07:31;95662.81;;;6.94;60.13
50394;BME280;36308;46.312;25.288;2023-04-20T00:09:57;95661.19;;;6.93;60.16
50394;BME280;36308;46.312;25.288;2023-04-20T00:12:24;95660.63;;;6.91;60.35
50394;BME280;36308;46.312;25.288;2023-04-20T00:14:50;95661.69;;;6.90;60.48
50394;BME280;36308;46.312;25.288;2023-04-20T00:17:16;95658.47;;;6.87;60.58
50394;BME280;36308;46.312;25.288;2023-04-20T00:19:42;95655.78;;;6.87;60.83
50394;BME280;36308;46.312;25.288;2023-04-20T00:22:07;95658.47;;;6.87;60.78
50394;BME280;36308;46.312;25.288;2023-04-20T00:24:33;95660.06;;;6.88;61.00
50394;BME280;36308;46.312;25.288;2023-04-20T00:26:59;95654.72;;;6.88;61.13
50394;BME280;36308;46.312;25.288;2023-04-20T00:29:24;95660.06;;;6.88;61.31
50394;BME280;36308;46.312;25.288;2023-04-20T00:31:50;95654.47;;;6.90;61.11
50394;BME280;36308;46.312;25.288;2023-04-20T00:34:16;95653.13;;;6.87;61.00
50394;BME280;36308;46.312;25.288;2023-04-20T00:36:43;95657.72;;;6.92;61.38
50394;BME280;36308;46.312;25.288;2023-04-20T00:39:09;95657.50;;;6.94;61.42
50394;BME280;36308;46.312;25.288;2023-04-20T00:41:34;95656.41;;;6.95;61.57
50394;BME280;36308;46.312;25.288;2023-04-20T00:44:00;95659.09;;;6.95;61.78
50394;BME280;36308;46.312;25.288;2023-04-20T00:46:26;95658.06;;;6.96;61.37
50394;BME280;36308;46.312;25.288;2023-04-20T00:48:52;95654.31;;;6.97;61.35
50394;BME280;36308;46.312;25.288;2023-04-20T00:51:20;95656.50;;;7.00;61.83
50394;BME280;36308;46.312;25.288;2023-04-20T00:53:46;95644.19;;;6.99;61.69
50394;BME280;36308;46.312;25.288;2023-04-20T00:56:13;95649.06;;;7.02;61.36
50394;BME280;36308;46.312;25.288;2023-04-20T00:58:39;95646.69;;;7.05;61.70
50394;BME280;36308;46.312;25.288;2023-04-20T01:01:09;95638.44;;;7.07;62.20
50394;BME280;36308;46.312;25.288;2023-04-20T01:03:35;95655.59;;;7.11;61.82
50394;BME280;36308;46.312;25.288;2023-04-20T01:06:02;95640.34;;;7.12;61.59
50394;BME280;36308;46.312;25.288;2023-04-20T01:08:28;95646.59;;;7.17;61.61
50394;BME280;36308;46.312;25.288;2023-04-20T01:10:54;95656.00;;;7.20;61.82
50394;BME280;36308;46.312;25.288;2023-04-20T01:13:20;95648.53;;;7.22;61.93
50394;BME280;36308;46.312;25.288;2023-04-20T01:15:46;95641.91;;;7.24;61.86
50394;BME280;36308;46.312;25.288;2023-04-20T01:18:11;95644.31;;;7.26;61.95
50394;BME280;36308;46.312;25.288;2023-04-20T01:20:38;95646.75;;;7.27;61.81
50394;BME280;36308;46.312;25.288;2023-04-20T01:23:03;95641.41;;;7.27;61.94
50394;BME280;36308;46.312;25.288;2023-04-20T01:25:29;95637.69;;;7.28;62.53
50394;BME280;36308;46.312;25.288;2023-04-20T01:27:54;95641.16;;;7.29;62.17
50394;BME280;36308;46.312;25.288;2023-04-20T01:30:20;95639.28;;;7.29;62.38
50394;BME280;36308;46.312;25.288;2023-04-20T01:32:45;95641.97;;;7.29;61.98
50394;BME280;36308;46.312;25.288;2023-04-20T01:35:13;95641.72;;;7.31;62.17
50394;BME280;36308;46.312;25.288;2023-04-20T01:37:40;95630.22;;;7.31;62.06
50394;BME280;36308;46.312;25.288;2023-04-20T01:40:10;95636.38;;;7.31;61.95
50394;BME280;36308;46.312;25.288;2023-04-20T01:42:36;95630.22;;;7.31;62.31
50394;BME280;36308;46.312;25.288;2023-04-20T01:45:04;95632.34;;;7.28;62.70
50394;BME280;36308;46.312;25.288;2023-04-20T01:47:30;95640.09;;;7.30;62.24
50394;BME280;36308;46.312;25.288;2023-04-20T01:49:56;95641.72;;;7.31;62.45
50394;BME280;36308;46.312;25.288;2023-04-20T01:52:21;95635.56;;;7.31;62.48
50394;BME280;36308;46.312;25.288;2023-04-20T01:54:47;95633.47;;;7.33;62.32
50394;BME280;36308;46.312;25.288;2023-04-20T01:57:12;95644.16;;;7.33;62.07
50394;BME280;36308;46.312;25.288;2023-04-20T01:59:38;95635.06;;;7.34;62.41
50394;BME280;36308;46.312;25.288;2023-04-20T02:02:04;95631.34;;;7.35;62.32
50394;BME280;36308;46.312;25.288;2023-04-20T02:04:29;95627.03;;;7.34;62.62
50394;BME280;36308;46.312;25.288;2023-04-20T02:06:55;95632.97;;;7.36;62.46
50394;BME280;36308;46.312;25.288;2023-04-20T02:09:20;95626.00;;;7.35;62.37
50394;BME280;36308;46.312;25.288;2023-04-20T02:11:46;95631.66;;;7.38;62.42
50394;BME280;36308;46.312;25.288;2023-04-20T02:14:11;95627.13;;;7.39;62.47
50394;BME280;36308;46.312;25.288;2023-04-20T02:16:37;95625.00;;;7.41;62.60
50394;BME280;36308;46.312;25.288;2023-04-20T02:19:02;95626.63;;;7.42;62.65
50394;BME280;36308;46.312;25.288;2023-04-20T02:21:28;95625.81;;;7.41;62.75
50394;BME280;36308;46.312;25.288;2023-04-20T02:23:53;95630.94;;;7.43;62.82
50394;BME280;36308;46.312;25.288;2023-04-20T02:26:19;95629.06;;;7.43;62.44
50394;BME280;36308;46.312;25.288;2023-04-20T02:28:45;95625.31;;;7.44;62.74
50394;BME280;36308;46.312;25.288;2023-04-20T02:31:10;95626.94;;;7.45;62.98
50394;BME280;36308;46.312;25.288;2023-04-20T02:33:36;95625.06;;;7.46;62.57
50394;BME280;36308;46.312;25.288;2023-04-20T02:36:01;95624.50;;;7.44;63.02
50394;BME280;36308;46.312;25.288;2023-04-20T02:38:27;95620.75;;;7.45;62.61
50394;BME280;36308;46.312;25.288;2023-04-20T02:40:53;95622.97;;;7.48;62.83
50394;BME280;36308;46.312;25.288;2023-04-20T02:43:18;95627.22;;;7.49;62.80
50394;BME280;36308;46.312;25.288;2023-04-20T02:45:44;95627.22;;;7.49;62.83
50394;BME280;36308;46.312;25.288;2023-04-20T02:48:10;95630.22;;;7.53;62.97
50394;BME280;36308;46.312;25.288;2023-04-20T02:50:36;95630.00;;;7.54;62.99
50394;BME280;36308;46.312;25.288;2023-04-20T02:53:02;95625.44;;;7.55;63.05
50394;BME280;36308;46.312;25.288;2023-04-20T02:55:28;95626.25;;;7.55;63.11
50394;BME280;36308;46.312;25.288;2023-04-20T02:57:56;95621.47;;;7.57;63.12
50394;BME280;36308;46.312;25.288;2023-04-20T03:00:21;95618.78;;;7.57;63.47
50394;BME280;36308;46.312;25.288;2023-04-20T03:02:47;95631.91;;;7.59;63.19
50394;BME280;36308;46.312;25.288;2023-04-20T03:05:12;95626.81;;;7.57;63.33
50394;BME280;36308;46.312;25.288;2023-04-20T03:07:38;95628.44;;;7.58;63.27
50394;BME280;36308;46.312;25.288;2023-04-20T03:10:04;95629.47;;;7.57;63.20
50394;BME280;36308;46.312;25.288;2023-04-20T03:12:30;95633.22;;;7.56;63.30
50394;BME280;36308;46.312;25.288;2023-04-20T03:14:56;95637.22;;;7.54;63.03
50394;BME280;36308;46.312;25.288;2023-04-20T03:17:22;95639.56;;;7.50;63.08
50394;BME280;36308;46.312;25.288;2023-04-20T03:19:47;95639.56;;;7.50;63.28
50394;BME280;36308;46.312;25.288;2023-04-20T03:22:12;95636.34;;;7.48;62.70
50394;BME280;36308;46.312;25.288;2023-04-20T03:24:38;95639.25;;;7.46;62.84
50394;BME280;36308;46.312;25.288;2023-04-20T03:27:03;95642.16;;;7.45;62.78
50394;BME280;36308;46.312;25.288;2023-04-20T03:29:29;95644.31;;;7.43;62.97
50394;BME280;36308;46.312;25.288;2023-04-20T03:31:54;95638.13;;;7.42;62.87
50394;BME280;36308;46.312;25.288;2023-04-20T03:34:20;95636.75;;;7.40;62.86
50394;BME280;36308;46.312;25.288;2023-04-20T03:36:46;95632.47;;;7.39;63.01
50394;BME280;36308;46.312;25.288;2023-04-20T03:39:11;95641.53;;;7.38;63.48
50394;BME280;36308;46.312;25.288;2023-04-20T03:41:37;95646.88;;;7.38;63.02
50394;BME280;36308;46.312;25.288;2023-04-20T03:44:02;95643.66;;;7.36;63.00
50394;BME280;36308;46.312;25.288;2023-04-20T03:46:28;95635.88;;;7.34;62.97
50394;BME280;36308;46.312;25.288;2023-04-20T03:48:53;95642.06;;;7.35;63.12
50394;BME280;36308;46.312;25.288;2023-04-20T03:51:19;95636.69;;;7.35;63.12
50394;BME280;36308;46.312;25.288;2023-04-20T03:53:44;95641.22;;;7.34;63.29
50394;BME280;36308;46.312;25.288;2023-04-20T03:56:10;95639.63;;;7.33;62.97
50394;BME280;36308;46.312;25.288;2023-04-20T03:58:35;95631.81;;;7.32;63.28
50394;BME280;36308;46.312;25.288;2023-04-20T04:01:04;95640.41;;;7.34;63.27
50394;BME280;36308;46.312;25.288;2023-04-20T04:03:34;95640.19;;;7.35;63.20
50394;BME280;36308;46.312;25.288;2023-04-20T04:06:00;95643.66;;;7.36;63.17
50394;BME280;36308;46.312;25.288;2023-04-20T04:08:25;95642.06;;;7.35;63.30
50394;BME280;36308;46.312;25.288;2023-04-20T04:10:51;95650.31;;;7.33;63.27
50394;BME280;36308;46.312;25.288;2023-04-20T04:13:17;95640.41;;;7.34;63.34
50394;BME280;36308;46.312;25.288;2023-04-20T04:15:42;95650.06;;;7.35;63.30
50394;BME280;36308;46.312;25.288;2023-04-20T04:18:07;95646.56;;;7.34;63.44
50394;BME280;36308;46.312;25.288;2023-04-20T04:20:33;95644.72;;;7.35;63.65
50394;BME280;36308;46.312;25.288;2023-04-20T04:22:59;95648.75;;;7.37;63.79
50394;BME280;36308;46.312;25.288;2023-04-20T04:25:24;95647.44;;;7.40;63.90
50394;BME280;36308;46.312;25.288;2023-04-20T04:27:50;95650.94;;;7.40;63.98
50394;BME280;36308;46.312;25.288;2023-04-20T04:30:15;95648.00;;;7.42;63.62
50394;BME280;36308;46.312;25.288;2023-04-20T04:32:42;95642.66;;;7.42;63.89
50394;BME280;36308;46.312;25.288;2023-04-20T04:35:09;95638.44;;;7.46;64.13
50394;BME280;36308;46.312;25.288;2023-04-20T04:37:34;95640.31;;;7.45;63.56
50394;BME280;36308;46.312;25.288;2023-04-20T04:40:01;95642.47;;;7.48;64.12
50394;BME280;36308;46.312;25.288;2023-04-20T04:42:27;95639.31;;;7.52;63.73
50394;BME280;36308;46.312;25.288;2023-04-20T04:44:53;95658.34;;;7.55;64.05
50394;BME280;36308;46.312;25.288;2023-04-20T04:47:20;95652.50;;;7.58;64.20
50394;BME280;36308;46.312;25.288;2023-04-20T04:49:47;95656.56;;;7.61;64.05
50394;BME280;36308;46.312;25.288;2023-04-20T04:52:12;95660.59;;;7.63;64.07
50394;BME280;36308;46.312;25.288;2023-04-20T04:54:38;95659.03;;;7.67;64.16
50394;BME280;36308;46.312;25.288;2023-04-20T04:57:03;95659.13;;;7.73;63.96
50394;BME280;36308;46.312;25.288;2023-04-20T04:59:29;95658.63;;;7.76;63.98
50394;BME280;36308;46.312;25.288;2023-04-20T05:01:54;95652.78;;;7.79;63.82
50394;BME280;36308;46.312;25.288;2023-04-20T05:04:20;95659.25;;;7.83;63.95
50394;BME280;36308;46.312;25.288;2023-04-20T05:06:45;95658.19;;;7.84;64.13
50394;BME280;36308;46.312;25.288;2023-04-20T05:09:11;95665.22;;;7.90;63.99
50394;BME280;36308;46.312;25.288;2023-04-20T05:11:37;95665.78;;;7.92;63.94
50394;BME280;36308;46.312;25.288;2023-04-20T05:14:02;95676.56;;;7.97;63.67
50394;BME280;36308;46.312;25.288;2023-04-20T05:16:28;95671.25;;;8.02;63.93
50394;BME280;36308;46.312;25.288;2023-04-20T05:18:53;95668.09;;;8.05;63.80
50394;BME280;36308;46.312;25.288;2023-04-20T05:21:19;95668.38;;;8.09;63.39
50394;BME280;36308;46.312;25.288;2023-04-20T05:23:44;95674.84;;;8.13;63.47
50394;BME280;36308;46.312;25.288;2023-04-20T05:26:10;95674.34;;;8.16;63.34
50394;BME280;36308;46.312;25.288;2023-04-20T05:28:35;95677.06;;;8.21;63.24
50394;BME280;36308;46.312;25.288;2023-04-20T05:31:01;95667.28;;;8.32;63.33
50394;BME280;36308;46.312;25.288;2023-04-20T05:33:26;95677.13;;;8.48;62.97
50394;BME280;36308;46.312;25.288;2023-04-20T05:35:55;95673.25;;;8.61;62.63
50394;BME280;36308;46.312;25.288;2023-04-20T05:38:21;95674.91;;;8.67;62.13
50394;BME280;36308;46.312;25.288;2023-04-20T05:40:47;95658.53;;;8.64;62.65
50394;BME280;36308;46.312;25.288;2023-04-20T05:43:12;95674.19;;;8.77;62.06
50394;BME280;36308;46.312;25.288;2023-04-20T05:45:38;95672.84;;;8.80;61.96
50394;BME280;36308;46.312;25.288;2023-04-20T05:48:03;95676.41;;;8.85;61.82
50394;BME280;36308;46.312;25.288;2023-04-20T05:50:29;95677.00;;;8.93;62.10
50394;BME280;36308;46.312;25.288;2023-04-20T05:52:55;95674.34;;;8.98;62.27
50394;BME280;36308;46.312;25.288;2023-04-20T05:55:21;95668.75;;;9.04;62.32
50394;BME280;36308;46.312;25.288;2023-04-20T05:57:46;95671.81;;;9.13;61.51
50394;BME280;36308;46.312;25.288;2023-04-20T06:00:14;95668.91;;;9.20;61.45
50394;BME280;36308;46.312;25.288;2023-04-20T06:02:41;95671.09;;;9.28;60.61
50394;BME280;36308;46.312;25.288;2023-04-20T06:05:07;95667.09;;;9.36;61.03
50394;BME280;36308;46.312;25.288;2023-04-20T06:07:37;95656.41;;;9.41;60.42
50394;BME280;36308;46.312;25.288;2023-04-20T06:10:04;95658.63;;;9.49;60.36
50394;BME280;36308;46.312;25.288;2023-04-20T06:12:30;95660.81;;;9.57;60.23
50394;BME280;36308;46.312;25.288;2023-04-20T06:14:56;95657.63;;;9.65;59.85
50394;BME280;36308;46.312;25.288;2023-04-20T06:17:22;95658.19;;;9.73;59.42
50394;BME280;36308;46.312;25.288;2023-04-20T06:19:47;95653.41;;;9.80;58.93
50394;BME280;36308;46.312;25.288;2023-04-20T06:22:13;95637.84;;;9.82;59.54
50394;BME280;36308;46.312;25.288;2023-04-20T06:24:39;95647.03;;;9.96;58.93
50394;BME280;36308;46.312;25.288;2023-04-20T06:27:07;95639.25;;;10.00;59.07
50394;BME280;36308;46.312;25.288;2023-04-20T06:29:33;95648.13;;;10.10;59.66
50394;BME280;36308;46.312;25.288;2023-04-20T06:31:58;95625.56;;;10.06;59.10
50394;BME280;36308;46.312;25.288;2023-04-20T06:34:24;95641.19;;;10.25;59.27
50394;BME280;36308;46.312;25.288;2023-04-20T06:36:49;95646.09;;;10.33;59.75
50394;BME280;36308;46.312;25.288;2023-04-20T06:39:15;95639.38;;;10.41;59.40
50394;BME280;36308;46.312;25.288;2023-04-20T06:41:41;95642.91;;;10.51;59.10
50394;BME280;36308;46.312;25.288;2023-04-20T06:44:07;95651.53;;;10.64;59.00
50394;BME280;36308;46.312;25.288;2023-04-20T06:46:33;95651.53;;;10.74;59.55
50394;BME280;36308;46.312;25.288;2023-04-20T06:48:58;95643.22;;;10.86;59.57
50394;BME280;36308;46.312;25.288;2023-04-20T06:51:24;95641.88;;;10.94;59.23
50394;BME280;36308;46.312;25.288;2023-04-20T06:53:51;95646.16;;;11.05;59.19
50394;BME280;36308;46.312;25.288;2023-04-20T06:56:17;95642.41;;;11.11;59.81
50394;BME280;36308;46.312;25.288;2023-04-20T06:58:42;95650.97;;;11.18;59.01
50394;BME280;36308;46.312;25.288;2023-04-20T07:01:26;95642.38;;;11.26;58.75
50394;BME280;36308;46.312;25.288;2023-04-20T07:03:52;95645.34;;;11.35;58.64
50394;BME280;36308;46.312;25.288;2023-04-20T07:06:17;95655.81;;;11.42;59.35
50394;BME280;36308;46.312;25.288;2023-04-20T07:08:43;95654.44;;;11.49;59.33
50394;BME280;36308;46.312;25.288;2023-04-20T07:11:09;95660.09;;;11.58;59.35
50394;BME280;36308;46.312;25.288;2023-04-20T07:13:34;95659.00;;;11.64;59.26
50394;BME280;36308;46.312;25.288;2023-04-20T07:16:00;95660.03;;;11.73;59.11
50394;BME280;36308;46.312;25.288;2023-04-20T07:18:25;95654.91;;;11.82;58.51
50394;BME280;36308;46.312;25.288;2023-04-20T07:20:51;95666.47;;;11.93;58.72
50394;BME280;36308;46.312;25.288;2023-04-20T07:23:17;95663.19;;;12.01;58.50
50394;BME280;36308;46.312;25.288;2023-04-20T07:25:42;95659.94;;;12.09;58.21
50394;BME280;36308;46.312;25.288;2023-04-20T07:28:08;95666.91;;;12.21;58.27
50394;BME280;36308;46.312;25.288;2023-04-20T07:30:34;95658.78;;;12.31;58.63
50394;BME280;36308;46.312;25.288;2023-04-20T07:33:00;95665.19;;;12.40;58.20
50394;BME280;36308;46.312;25.288;2023-04-20T07:35:25;95661.91;;;12.48;57.93
50394;BME280;36308;46.312;25.288;2023-04-20T07:37:51;95662.94;;;12.58;57.75
50394;BME280;36308;46.312;25.288;2023-04-20T07:40:16;95667.22;;;12.64;57.90
50394;BME280;36308;46.312;25.288;2023-04-20T07:42:42;95669.81;;;12.74;57.51
50394;BME280;36308;46.312;25.288;2023-04-20T07:45:09;95667.38;;;12.83;57.57
50394;BME280;36308;46.312;25.288;2023-04-20T07:47:35;95670.25;;;12.91;57.19
50394;BME280;36308;46.312;25.288;2023-04-20T07:50:02;95669.13;;;12.98;56.77
50394;BME280;36308;46.312;25.288;2023-04-20T07:52:27;95669.91;;;13.03;56.19
50394;BME280;36308;46.312;25.288;2023-04-20T07:54:54;95650.97;;;13.08;55.93
50394;BME280;36308;46.312;25.288;2023-04-20T07:57:22;95666.56;;;13.17;55.77
50394;BME280;36308;46.312;25.288;2023-04-20T07:59:47;95664.63;;;13.22;55.38
50394;BME280;36308;46.312;25.288;2023-04-20T08:02:13;95663.50;;;13.28;54.76
50394;BME280;36308;46.312;25.288;2023-04-20T08:04:38;95662.41;;;13.34;54.67
50394;BME280;36308;46.312;25.288;2023-04-20T08:07:04;95656.41;;;13.38;53.97
50394;BME280;36308;46.312;25.288;2023-04-20T08:09:29;95663.91;;;13.46;53.77
50394;BME280;36308;46.312;25.288;2023-04-20T08:11:55;95661.97;;;13.51;53.63
50394;BME280;36308;46.312;25.288;2023-04-20T08:14:21;95662.19;;;13.55;53.17
50394;BME280;36308;46.312;25.288;2023-04-20T08:16:46;95660.50;;;13.59;53.10
50394;BME280;36308;46.312;25.288;2023-04-20T08:19:12;95669.09;;;13.66;52.77
50394;BME280;36308;46.312;25.288;2023-04-20T08:21:38;95660.94;;;13.71;52.98
50394;BME280;36308;46.312;25.288;2023-04-20T08:24:05;95658.19;;;13.77;52.78
50394;BME280;36308;46.312;25.288;2023-04-20T08:26:31;95659.75;;;13.83;52.63
50394;BME280;36308;46.312;25.288;2023-04-20T08:28:58;95662.38;;;13.88;52.33
50394;BME280;36308;46.312;25.288;2023-04-20T08:31:23;95658.53;;;13.94;52.14
50394;BME280;36308;46.312;25.288;2023-04-20T08:33:49;95663.88;;;13.99;52.01
50394;BME280;36308;46.312;25.288;2023-04-20T08:36:15;95656.81;;;14.03;51.84
50394;BME280;36308;46.312;25.288;2023-04-20T08:38:41;95665.34;;;14.10;51.66
50394;BME280;36308;46.312;25.288;2023-04-20T08:41:06;95664.19;;;14.17;51.60
50394;BME280;36308;46.312;25.288;2023-04-20T08:43:32;95664.16;;;14.22;51.51
50394;BME280;36308;46.312;25.288;2023-04-20T08:45:58;95668.97;;;14.25;51.32
50394;BME280;36308;46.312;25.288;2023-04-20T08:48:25;95670.81;;;14.29;51.24
50394;BME280;36308;46.312;25.288;2023-04-20T08:50:53;95667.25;;;14.34;51.10
50394;BME280;36308;46.312;25.288;2023-04-20T08:53:19;95668.28;;;14.38;50.83
50394;BME280;36308;46.312;25.288;2023-04-20T08:55:44;95673.09;;;14.41;50.90
50394;BME280;36308;46.312;25.288;2023-04-20T08:58:10;95674.13;;;14.45;50.81
50394;BME280;36308;46.312;25.288;2023-04-20T09:00:45;95672.44;;;14.49;50.62
50394;BME280;36308;46.312;25.288;2023-04-20T09:03:11;95673.47;;;14.53;50.37
50394;BME280;36308;46.312;25.288;2023-04-20T09:05:36;95668.84;;;14.59;50.29
50394;BME280;36308;46.312;25.288;2023-04-20T09:08:04;95668.47;;;14.66;50.63
50394;BME280;36308;46.312;25.288;2023-04-20T09:10:42;95667.28;;;14.72;50.67
50394;BME280;36308;46.312;25.288;2023-04-20T09:13:20;95670.13;;;14.81;50.21
50394;BME280;36308;46.312;25.288;2023-04-20T09:15:45;95671.38;;;14.88;50.12
50394;BME280;36308;46.312;25.288;2023-04-20T09:18:14;95665.38;;;14.91;49.88
50394;BME280;36308;46.312;25.288;2023-04-20T09:20:40;95661.50;;;14.98;50.08
50394;BME280;36308;46.312;25.288;2023-04-20T09:23:13;95668.94;;;15.06;50.00
50394;BME280;36308;46.312;25.288;2023-04-20T09:25:39;95664.25;;;15.11;49.89
50394;BME280;36308;46.312;25.288;2023-04-20T09:28:06;95664.69;;;15.19;49.63
50394;BME280;36308;46.312;25.288;2023-04-20T09:33:09;95657.69;;;15.31;49.09
50394;BME280;36308;46.312;25.288;2023-04-20T09:35:43;95656.50;;;15.38;48.94
50394;BME280;36308;46.312;25.288;2023-04-20T09:38:10;95651.00;;;15.43;49.04
50394;BME280;36308;46.312;25.288;2023-04-20T09:40:36;95663.78;;;15.56;48.85
50394;BME280;36308;46.312;25.288;2023-04-20T09:43:10;95660.88;;;15.66;48.87
50394;BME280;36308;46.312;25.288;2023-04-20T09:45:38;95663.84;;;15.84;49.07
50394;BME280;36308;46.312;25.288;2023-04-20T09:48:05;95661.97;;;15.98;48.58
50394;BME280;36308;46.312;25.288;2023-04-20T09:50:35;95662.84;;;16.07;47.79
50394;BME280;36308;46.312;25.288;2023-04-20T09:53:03;95662.16;;;16.15;47.83
50394;BME280;36308;46.312;25.288;2023-04-20T09:55:30;95655.22;;;16.23;47.79
50394;BME280;36308;46.312;25.288;2023-04-20T09:57:56;95662.81;;;16.35;47.43
50394;BME280;36308;46.312;25.288;2023-04-20T10:00:23;95662.59;;;16.45;47.30
50394;BME280;36308;46.312;25.288;2023-04-20T10:02:48;95668.44;;;16.52;47.34
50394;BME280;36308;46.312;25.288;2023-04-20T10:05:14;95657.97;;;16.60;47.13
50394;BME280;36308;46.312;25.288;2023-04-20T10:07:41;95649.09;;;16.68;47.13
50394;BME280;36308;46.312;25.288;2023-04-20T10:10:11;95655.91;;;16.79;46.73
50394;BME280;36308;46.312;25.288;2023-04-20T10:12:51;95657.94;;;16.87;46.45
50394;BME280;36308;46.312;25.288;2023-04-20T10:15:17;95655.59;;;16.94;46.52
50394;BME280;36308;46.312;25.288;2023-04-20T10:17:43;95660.72;;;16.96;45.66
50394;BME280;36308;46.312;25.288;2023-04-20T10:20:24;95652.06;;;16.94;45.22
50394;BME280;36308;46.312;25.288;2023-04-20T10:22:51;95652.88;;;16.94;45.36
50394;BME280;36308;46.312;25.288;2023-04-20T10:25:19;95646.63;;;16.94;45.65
50394;BME280;36308;46.312;25.288;2023-04-20T10:27:59;95654.50;;;16.95;45.22
50394;BME280;36308;46.312;25.288;2023-04-20T10:30:26;95646.84;;;16.98;45.02
50394;BME280;36308;46.312;25.288;2023-04-20T10:33:06;95646.84;;;16.98;45.44
50394;BME280;36308;46.312;25.288;2023-04-20T10:35:46;95657.06;;;17.01;45.21
50394;BME280;36308;46.312;25.288;2023-04-20T10:38:11;95658.84;;;17.05;44.80
50394;BME280;36308;46.312;25.288;2023-04-20T10:40:37;95648.19;;;17.09;45.00
50394;BME280;36308;46.312;25.288;2023-04-20T10:43:03;95660.03;;;17.13;44.78
50394;BME280;36308;46.312;25.288;2023-04-20T10:45:35;95657.03;;;17.14;44.44
50394;BME280;36308;46.312;25.288;2023-04-20T10:48:10;95662.63;;;17.18;44.82
50394;BME280;36308;46.312;25.288;2023-04-20T10:50:35;95666.31;;;17.22;44.81
50394;BME280;36308;46.312;25.288;2023-04-20T10:53:01;95671.66;;;17.27;44.93
50394;BME280;36308;46.312;25.288;2023-04-20T10:55:28;95679.66;;;17.32;45.07
50394;BME280;36308;46.312;25.288;2023-04-20T10:57:54;95679.25;;;17.39;44.89
50394;BME280;36308;46.312;25.288;2023-04-20T11:00:24;95678.50;;;17.47;44.70
50394;BME280;36308;46.312;25.288;2023-04-20T11:02:55;95677.56;;;17.52;44.33
50394;BME280;36308;46.312;25.288;2023-04-20T11:05:22;95677.72;;;17.55;44.46
50394;BME280;36308;46.312;25.288;2023-04-20T11:10:18;95686.13;;;17.68;44.21
50394;BME280;36308;46.312;25.288;2023-04-20T11:12:43;95686.78;;;17.73;44.47
50394;BME280;36308;46.312;25.288;2023-04-20T11:15:09;95682.81;;;17.80;44.53
50394;BME280;36308;46.312;25.288;2023-04-20T11:17:36;95689.28;;;17.84;44.61
50394;BME280;36308;46.312;25.288;2023-04-20T11:22:33;95682.44;;;17.95;44.87
50394;BME280;36308;46.312;25.288;2023-04-20T11:25:06;95682.31;;;18.00;44.72
50394;BME280;36308;46.312;25.288;2023-04-20T11:27:35;95686.50;;;18.06;44.63
50394;BME280;36308;46.312;25.288;2023-04-20T11:30:02;95680.59;;;18.13;44.50
50394;BME280;36308;46.312;25.288;2023-04-20T11:32:33;95684.00;;;18.18;44.56
50394;BME280;36308;46.312;25.288;2023-04-20T11:35:04;95683.72;;;18.29;44.15
50394;BME280;36308;46.312;25.288;2023-04-20T11:37:32;95678.75;;;18.31;43.88
50394;BME280;36308;46.312;25.288;2023-04-20T11:40:05;95680.84;;;18.34;43.46
50394;BME280;36308;46.312;25.288;2023-04-20T11:42:34;95672.81;;;18.29;43.02
50394;BME280;36308;46.312;25.288;2023-04-20T11:44:59;95685.66;;;18.37;42.88
50394;BME280;36308;46.312;25.288;2023-04-20T11:47:25;95677.81;;;18.35;42.77
50394;BME280;36308;46.312;25.288;2023-04-20T11:49:51;95680.84;;;18.34;42.56
50394;BME280;36308;46.312;25.288;2023-04-20T11:52:17;95678.44;;;18.32;42.71
50394;BME280;36308;46.312;25.288;2023-04-20T11:54:43;95685.78;;;18.32;42.53
50394;BME280;36308;46.312;25.288;2023-04-20T11:57:08;95682.09;;;18.28;42.35
50394;BME280;36308;46.312;25.288;2023-04-20T11:59:34;95675.19;;;18.22;42.56
50394;BME280;36308;46.312;25.288;2023-04-20T12:01:59;95674.53;;;18.16;42.68
50394;BME280;36308;46.312;25.288;2023-04-20T12:04:29;95673.38;;;18.08;42.87
50394;BME280;36308;46.312;25.288;2023-04-20T12:06:55;95681.19;;;18.01;42.84
50394;BME280;36308;46.312;25.288;2023-04-20T12:09:22;95668.38;;;17.93;42.98
50394;BME280;36308;46.312;25.288;2023-04-20T12:11:48;95669.63;;;17.87;42.99
50394;BME280;36308;46.312;25.288;2023-04-20T12:14:13;95677.59;;;17.83;43.07
50394;BME280;36308;46.312;25.288;2023-04-20T12:16:39;95670.84;;;17.81;43.37
50394;BME280;36308;46.312;25.288;2023-04-20T12:19:04;95668.75;;;17.77;43.44
50394;BME280;36308;46.312;25.288;2023-04-20T12:21:30;95667.28;;;17.71;43.19
50394;BME280;36308;46.312;25.288;2023-04-20T12:23:56;95668.81;;;17.64;43.10
50394;BME280;36308;46.312;25.288;2023-04-20T12:26:22;95663.84;;;17.57;43.26
50394;BME280;36308;46.312;25.288;2023-04-20T12:28:48;95659.63;;;17.51;43.08
50394;BME280;36308;46.312;25.288;2023-04-20T12:31:13;95662.50;;;17.46;43.09
50394;BME280;36308;46.312;25.288;2023-04-20T12:33:39;95662.31;;;17.42;43.24
50394;BME280;36308;46.312;25.288;2023-04-20T12:36:04;95663.75;;;17.40;43.32
50394;BME280;36308;46.312;25.288;2023-04-20T12:38:30;95662.13;;;17.38;43.75
50394;BME280;36308;46.312;25.288;2023-04-20T12:40:55;95657.50;;;17.39;43.88
50394;BME280;36308;46.312;25.288;2023-04-20T12:43:21;95658.91;;;17.36;43.75
50394;BME280;36308;46.312;25.288;2023-04-20T12:45:46;95654.22;;;17.28;44.12
50394;BME280;36308;46.312;25.288;2023-04-20T12:48:12;95654.84;;;17.25;44.44
50394;BME280;36308;46.312;25.288;2023-04-20T12:50:38;95649.53;;;17.20;44.90
50394;BME280;36308;46.312;25.288;2023-04-20T12:53:03;95648.88;;;17.14;45.53
50394;BME280;36308;46.312;25.288;2023-04-20T12:55:29;95653.00;;;17.12;45.85
50394;BME280;36308;46.312;25.288;2023-04-20T12:57:55;95642.31;;;17.15;46.22